Time;durP1;ratioP1;P1;durP2;ratioP2;P2;SDS_P1;SDS_P2;PMS_P1;PMS_P2;Temp;Humidity;BMP_temperature;BMP_pressure;BME280_temperature;BME280_humidity;BME280_pressure;Samples;Min_cycle;Max_cycle;Signal;HPM_P1;HPM_P2
2023/03/20 00:01:43;;;;;;;;;;;10.70;90.20;;;;;;5110469;28;19947;-90
2023/03/20 00:04:09;;;;;;;;;;;10.60;90.20;;;;;;5096496;28;19949;-90
2023/03/20 00:06:35;;;;;;;;;;;10.60;90.00;;;;;;5096188;28;19979;-91
2023/03/20 00:09:01;;;;;;;;;;;10.70;90.10;;;;;;5096361;28;19990;-91
2023/03/20 00:11:29;;;;;;;;;;;10.70;90.00;;;;;;5099665;28;19946;-90
2023/03/20 00:14:02;;;;;;;;;;;10.70;89.70;;;;;;5116703;28;19939;-90
2023/03/20 00:16:32;;;;;;;;;;;10.70;89.60;;;;;;5116686;28;20401;-90
2023/03/20 00:18:58;;;;;;;;;;;10.70;89.50;;;;;;5116557;28;20396;-90
2023/03/20 00:21:23;;;;;;;;;;;10.70;89.50;;;;;;5113471;28;19945;-89
2023/03/20 00:23:49;;;;;;;;;;;10.60;89.40;;;;;;5096184;28;20591;-90
2023/03/20 00:26:17;;;;;;;;;;;10.60;89.30;;;;;;5095996;28;20482;-90
2023/03/20 00:28:46;;;;;;;;;;;10.60;88.90;;;;;;5096013;28;19950;-90
2023/03/20 00:31:24;;;;;;;;;;;10.70;89.00;;;;;;5096225;28;19956;-90
2023/03/20 00:33:50;;;;;;;;;;;10.60;89.30;;;;;;5094667;28;20383;-89
2023/03/20 00:36:15;;;;;;;;;;;10.60;89.40;;;;;;5096120;28;19940;-90
2023/03/20 00:38:41;;;;;;;;;;;10.50;89.80;;;;;;5095387;28;20506;-90
2023/03/20 00:41:26;;;;;;;;;;;10.50;90.10;;;;;;5096010;28;19992;-90
2023/03/20 00:43:54;;;;;;;;;;;10.50;90.10;;;;;;5082717;28;19949;-90
2023/03/20 00:46:20;;;;;;;;;;;10.40;90.30;;;;;;5095637;28;19956;-90
2023/03/20 00:48:46;;;;;;;;;;;10.50;90.30;;;;;;5095680;28;20089;-91
2023/03/20 00:51:11;;;;;;;;;;;10.50;90.10;;;;;;5095824;28;19950;-89
2023/03/20 00:53:37;;;;;;;;;;;10.40;89.90;;;;;;5115906;28;19955;-90
2023/03/20 00:56:03;;;;;;;;;;;10.30;89.70;;;;;;5114586;28;20310;-90
2023/03/20 00:58:29;;;;;;;;;;;10.20;90.40;;;;;;5115888;28;19944;-91
2023/03/20 01:00:55;;;;;;;;;;;10.20;90.80;;;;;;5115752;28;19939;-90
2023/03/20 01:03:21;;;;;;;;;;;10.10;91.10;;;;;;5096940;28;19997;-90
2023/03/20 01:05:48;;;;;;;;;;;10.20;91.00;;;;;;5095093;28;19961;-90
2023/03/20 01:08:18;;;;;;;;;;;10.30;90.80;;;;;;5095231;28;20348;-89
2023/03/20 01:10:44;;;;;;;;;;;10.30;90.40;;;;;;5095274;28;19998;-90
2023/03/20 01:13:20;;;;;;;;;;;10.20;90.20;;;;;;5112134;28;19963;-90
2023/03/20 01:15:47;;;;;;;;;;;10.20;90.50;;;;;;5114124;28;19940;-90
2023/03/20 01:18:13;;;;;;;;;;;10.10;90.80;;;;;;5114205;28;19955;-90
2023/03/20 01:20:39;;;;;;;;;;;10.10;90.80;;;;;;5114724;28;19955;-90
2023/03/20 01:23:05;;;;;;;;;;;10.10;90.70;;;;;;5115680;28;19940;-90
2023/03/20 01:25:30;;;;;;;;;;;10.20;90.60;;;;;;5115346;28;20033;-90
2023/03/20 01:27:56;;;;;;;;;;;10.10;90.60;;;;;;5115241;28;19958;-90
2023/03/20 01:30:22;;;;;;;;;;;10.10;90.60;;;;;;5115186;28;19957;-90
2023/03/20 01:32:48;;;;;;;;;;;10.00;90.50;;;;;;5115219;28;19959;-91
2023/03/20 01:35:15;;;;;;;;;;;10.10;90.50;;;;;;5115099;28;19939;-90
2023/03/20 01:37:41;;;;;;;;;;;10.00;90.50;;;;;;5114327;28;19954;-90
2023/03/20 01:40:14;;;;;;;;;;;10.00;90.90;;;;;;5115034;28;20355;-90
2023/03/20 01:42:40;;;;;;;;;;;10.00;90.80;;;;;;5114983;28;20421;-90
2023/03/20 01:45:15;;;;;;;;;;;9.90;90.70;;;;;;5114881;28;19942;-90
2023/03/20 01:47:40;;;;;;;;;;;9.90;90.70;;;;;;5106721;28;19986;-90
2023/03/20 01:50:15;;;;;;;;;;;9.90;90.80;;;;;;5093875;28;20405;-91
2023/03/20 01:52:41;;;;;;;;;;;9.90;90.90;;;;;;5094252;28;20452;-89
2023/03/20 01:55:06;;;;;;;;;;;9.90;91.00;;;;;;5094386;28;19939;-90
2023/03/20 01:57:32;;;;;;;;;;;9.90;91.10;;;;;;5100180;28;19944;-89
2023/03/20 01:59:58;;;;;;;;;;;9.90;91.20;;;;;;5114702;28;19944;-90
2023/03/20 02:02:28;;;;;;;;;;;9.90;91.60;;;;;;5114447;28;20384;-90
2023/03/20 02:04:55;;;;;;;;;;;9.90;91.60;;;;;;5114539;28;19941;-90
2023/03/20 02:07:22;;;;;;;;;;;9.90;91.40;;;;;;5109756;28;19976;-90
2023/03/20 02:09:50;;;;;;;;;;;10.00;91.30;;;;;;5094093;28;19937;-90
2023/03/20 02:12:16;;;;;;;;;;;9.90;91.00;;;;;;5094033;28;20399;-90
2023/03/20 02:14:42;;;;;;;;;;;9.90;91.10;;;;;;5093998;28;19940;-90
2023/03/20 02:17:08;;;;;;;;;;;9.90;91.00;;;;;;5093884;28;19943;-90
2023/03/20 02:19:41;;;;;;;;;;;9.90;90.80;;;;;;5093894;28;19960;-89
2023/03/20 02:22:25;;;;;;;;;;;9.80;90.90;;;;;;5093826;28;19940;-89
2023/03/20 02:25:14;;;;;;;;;;;9.80;91.30;;;;;;5093843;28;19939;-89
2023/03/20 02:27:45;;;;;;;;;;;9.80;91.50;;;;;;5099919;28;20019;-89
2023/03/20 02:30:11;;;;;;;;;;;9.70;91.70;;;;;;5114030;28;19939;-89
2023/03/20 02:32:48;;;;;;;;;;;9.70;91.90;;;;;;5113999;28;19984;-89
2023/03/20 02:35:49;;;;;;;;;;;9.70;91.80;;;;;;5114229;28;19946;-89
2023/03/20 02:38:17;;;;;;;;;;;9.60;91.80;;;;;;5039719;28;20074;-89
2023/03/20 02:40:48;;;;;;;;;;;9.60;91.80;;;;;;5064952;28;19957;-88
2023/03/20 02:43:13;;;;;;;;;;;9.60;92.00;;;;;;5073288;28;19949;-88
2023/03/20 02:45:47;;;;;;;;;;;9.60;92.30;;;;;;5073297;28;19939;-89
2023/03/20 02:48:15;;;;;;;;;;;9.70;92.60;;;;;;5094690;28;19958;-88
2023/03/20 02:51:00;;;;;;;;;;;9.80;92.80;;;;;;5113722;28;19942;-89
2023/03/20 02:53:44;;;;;;;;;;;9.80;92.80;;;;;;5113645;28;20041;-89
2023/03/20 02:56:23;;;;;;;;;;;9.90;92.80;;;;;;5113388;28;19943;-89
2023/03/20 02:59:11;;;;;;;;;;;9.90;92.60;;;;;;5072958;28;19941;-89
2023/03/20 03:01:45;;;;;;;;;;;9.80;91.80;;;;;;5072770;28;19944;-89
2023/03/20 03:04:16;;;;;;;;;;;9.80;91.60;;;;;;5073008;28;20324;-90
2023/03/20 03:06:43;;;;;;;;;;;9.80;91.70;;;;;;5080979;28;19976;-89
2023/03/20 03:09:11;;;;;;;;;;;9.90;91.90;;;;;;5113501;28;19938;-89
2023/03/20 03:11:38;;;;;;;;;;;9.80;91.70;;;;;;5113560;28;19940;-89
2023/03/20 03:14:05;;;;;;;;;;;9.90;91.90;;;;;;5113475;28;20412;-90
2023/03/20 03:16:36;;;;;;;;;;;9.90;91.90;;;;;;5111331;28;19949;-89
2023/03/20 03:19:06;;;;;;;;;;;9.70;91.90;;;;;;5093078;28;19942;-89
2023/03/20 03:21:32;;;;;;;;;;;9.70;92.10;;;;;;5093089;28;19963;-90
2023/03/20 03:23:58;;;;;;;;;;;9.70;92.20;;;;;;5093068;28;20462;-90
2023/03/20 03:26:25;;;;;;;;;;;9.70;92.30;;;;;;5092341;28;20011;-90
2023/03/20 03:28:55;;;;;;;;;;;9.80;92.40;;;;;;5113400;28;19943;-90
2023/03/20 03:31:23;;;;;;;;;;;9.70;92.60;;;;;;5113362;28;19940;-91
2023/03/20 03:33:54;;;;;;;;;;;9.80;92.70;;;;;;5108345;28;20032;-90
2023/03/20 03:36:35;;;;;;;;;;;9.80;92.70;;;;;;5092938;28;19940;-91
2023/03/20 03:39:03;;;;;;;;;;;9.90;92.70;;;;;;5092991;28;20007;-90
2023/03/20 03:41:36;;;;;;;;;;;9.90;92.50;;;;;;5092909;28;19990;-90
2023/03/20 03:44:11;;;;;;;;;;;9.90;92.30;;;;;;5097765;28;19984;-90
2023/03/20 03:46:39;;;;;;;;;;;9.90;92.20;;;;;;5110600;28;19954;-90
2023/03/20 03:49:07;;;;;;;;;;;9.80;92.00;;;;;;5092272;28;19999;-91
2023/03/20 03:51:34;;;;;;;;;;;9.80;92.20;;;;;;5092321;28;20133;-89
2023/03/20 03:54:04;;;;;;;;;;;9.90;92.20;;;;;;5092788;28;19956;-90
2023/03/20 03:56:31;;;;;;;;;;;9.90;92.00;;;;;;5096256;28;19944;-90
2023/03/20 03:58:59;;;;;;;;;;;9.90;91.80;;;;;;5092994;28;19949;-90
2023/03/20 04:01:26;;;;;;;;;;;10.00;90.90;;;;;;5092117;28;19983;-90
2023/03/20 04:03:55;;;;;;;;;;;9.90;90.30;;;;;;5091134;28;19954;-89
2023/03/20 04:06:20;;;;;;;;;;;9.90;90.10;;;;;;5091982;28;19975;-89
2023/03/20 04:08:46;;;;;;;;;;;9.90;90.10;;;;;;5091197;28;19945;-89
2023/03/20 04:11:14;;;;;;;;;;;9.90;90.20;;;;;;5091022;28;19938;-89
2023/03/20 04:13:40;;;;;;;;;;;9.80;90.30;;;;;;5091575;28;19961;-89
2023/03/20 04:16:06;;;;;;;;;;;9.70;90.50;;;;;;5095177;28;19944;-89
2023/03/20 04:18:31;;;;;;;;;;;9.70;90.50;;;;;;5096091;28;19944;-89
2023/03/20 04:20:57;;;;;;;;;;;9.70;90.70;;;;;;5096176;28;19930;-89
2023/03/20 04:23:22;;;;;;;;;;;9.60;90.90;;;;;;5096145;28;20230;-89
2023/03/20 04:25:48;;;;;;;;;;;9.50;90.80;;;;;;5114488;28;20284;-88
2023/03/20 04:28:15;;;;;;;;;;;9.50;91.30;;;;;;5116363;28;19966;-89
2023/03/20 04:30:43;;;;;;;;;;;9.50;91.30;;;;;;5116692;28;19970;-89
2023/03/20 04:33:08;;;;;;;;;;;9.40;91.10;;;;;;5105159;28;19945;-88
2023/03/20 04:35:34;;;;;;;;;;;9.40;91.10;;;;;;5095951;28;19982;-89
2023/03/20 04:37:59;;;;;;;;;;;9.40;91.30;;;;;;5095866;28;19945;-89
2023/03/20 04:40:26;;;;;;;;;;;9.40;91.10;;;;;;5096063;28;19950;-88
2023/03/20 04:42:51;;;;;;;;;;;9.40;91.00;;;;;;5103678;28;20062;-89
2023/03/20 04:45:17;;;;;;;;;;;9.40;90.80;;;;;;5115823;28;20032;-89
2023/03/20 04:47:42;;;;;;;;;;;9.50;90.70;;;;;;5115984;28;20016;-88
2023/03/20 04:50:08;;;;;;;;;;;9.50;90.40;;;;;;5115996;28;19944;-88
2023/03/20 04:52:34;;;;;;;;;;;9.60;90.30;;;;;;5115392;28;19964;-88
2023/03/20 04:54:59;;;;;;;;;;;9.60;90.10;;;;;;5115860;28;19950;-89
2023/03/20 04:57:25;;;;;;;;;;;9.50;89.80;;;;;;5115847;28;19947;-89
2023/03/20 04:59:50;;;;;;;;;;;9.40;89.70;;;;;;5115839;28;19946;-88
2023/03/20 05:02:16;;;;;;;;;;;9.20;89.50;;;;;;5115617;28;19986;-89
2023/03/20 05:04:42;;;;;;;;;;;9.10;89.80;;;;;;5115673;28;20317;-89
2023/03/20 05:07:07;;;;;;;;;;;9.10;90.00;;;;;;5115443;28;19979;-89
2023/03/20 05:09:33;;;;;;;;;;;8.90;90.60;;;;;;5115675;28;19946;-89
2023/03/20 05:11:59;;;;;;;;;;;8.90;90.70;;;;;;5115607;28;19946;-89
2023/03/20 05:14:24;;;;;;;;;;;8.90;90.80;;;;;;5115502;28;19943;-89
2023/03/20 05:16:50;;;;;;;;;;;8.90;90.90;;;;;;5115533;28;19946;-90
2023/03/20 05:19:16;;;;;;;;;;;8.90;91.00;;;;;;5115485;28;19942;-89
2023/03/20 05:21:41;;;;;;;;;;;8.90;91.20;;;;;;5115418;28;19937;-89
2023/03/20 05:24:07;;;;;;;;;;;8.70;91.20;;;;;;5115355;28;19940;-89
2023/03/20 05:26:32;;;;;;;;;;;8.70;91.80;;;;;;5115303;28;19971;-90
2023/03/20 05:28:58;;;;;;;;;;;8.70;92.00;;;;;;5115228;28;19948;-89
2023/03/20 05:31:23;;;;;;;;;;;8.60;92.30;;;;;;5115147;28;19937;-89
2023/03/20 05:33:49;;;;;;;;;;;8.60;92.40;;;;;;5115195;28;19964;-89
2023/03/20 05:36:15;;;;;;;;;;;8.60;92.70;;;;;;5115128;28;19939;-89
2023/03/20 05:38:40;;;;;;;;;;;8.70;92.60;;;;;;5115337;28;19979;-89
2023/03/20 05:41:06;;;;;;;;;;;8.80;92.40;;;;;;5115026;28;20393;-89
2023/03/20 05:43:31;;;;;;;;;;;8.90;92.20;;;;;;5115012;28;19954;-89
2023/03/20 05:45:57;;;;;;;;;;;8.90;92.10;;;;;;5114871;28;19966;-89
2023/03/20 05:48:23;;;;;;;;;;;9.00;92.00;;;;;;5115138;28;19946;-89
2023/03/20 05:50:49;;;;;;;;;;;9.00;92.00;;;;;;5098338;28;19944;-89
2023/03/20 05:53:15;;;;;;;;;;;9.00;92.00;;;;;;5093257;28;20106;-89
2023/03/20 05:55:43;;;;;;;;;;;9.00;91.90;;;;;;5092275;28;19951;-90
2023/03/20 05:58:09;;;;;;;;;;;8.90;91.60;;;;;;5093191;28;20354;-89
2023/03/20 06:00:34;;;;;;;;;;;8.90;91.70;;;;;;5094176;28;19993;-89
2023/03/20 06:03:00;;;;;;;;;;;8.90;91.80;;;;;;5092848;28;20388;-89
2023/03/20 06:05:25;;;;;;;;;;;8.90;91.80;;;;;;5092767;28;19940;-89
2023/03/20 06:07:51;;;;;;;;;;;8.90;91.90;;;;;;5091937;28;20006;-89
2023/03/20 06:10:18;;;;;;;;;;;9.00;91.70;;;;;;5090220;28;19944;-89
2023/03/20 06:12:44;;;;;;;;;;;9.10;91.50;;;;;;5092858;28;19950;-89
2023/03/20 06:15:10;;;;;;;;;;;9.00;91.40;;;;;;5091595;28;19977;-89
2023/03/20 06:17:35;;;;;;;;;;;9.00;91.30;;;;;;5092744;28;19941;-89
2023/03/20 06:20:01;;;;;;;;;;;8.90;91.30;;;;;;5092500;28;20023;-88
2023/03/20 06:22:26;;;;;;;;;;;8.90;91.50;;;;;;5092260;28;20407;-88
2023/03/20 06:24:52;;;;;;;;;;;8.90;91.50;;;;;;5096570;28;20379;-88
2023/03/20 06:27:17;;;;;;;;;;;8.90;91.70;;;;;;5092933;28;20470;-88
2023/03/20 06:29:43;;;;;;;;;;;9.00;91.80;;;;;;5091240;28;19949;-89
2023/03/20 06:32:11;;;;;;;;;;;8.90;91.90;;;;;;5084471;28;19943;-88
2023/03/20 06:34:36;;;;;;;;;;;8.90;92.10;;;;;;5083323;28;19949;-89
2023/03/20 06:37:02;;;;;;;;;;;8.90;92.30;;;;;;5090020;28;19948;-89
2023/03/20 06:39:27;;;;;;;;;;;8.80;92.70;;;;;;5067441;28;20033;-89
2023/03/20 06:41:53;;;;;;;;;;;8.90;92.60;;;;;;5085685;28;20317;-89
2023/03/20 06:44:19;;;;;;;;;;;9.10;92.50;;;;;;5092691;28;19968;-89
2023/03/20 06:46:44;;;;;;;;;;;9.20;92.10;;;;;;5087413;28;19961;-89
2023/03/20 06:49:10;;;;;;;;;;;9.40;91.80;;;;;;5089948;28;20087;-89
2023/03/20 06:51:36;;;;;;;;;;;9.40;91.30;;;;;;5073755;28;19938;-88
2023/03/20 06:54:01;;;;;;;;;;;9.50;90.70;;;;;;5076994;28;19967;-89
2023/03/20 06:56:27;;;;;;;;;;;9.60;90.30;;;;;;5093389;28;20033;-88
2023/03/20 06:58:52;;;;;;;;;;;9.70;89.70;;;;;;5080967;28;19956;-89
2023/03/20 07:01:19;;;;;;;;;;;9.80;89.30;;;;;;5089623;28;19943;-89
2023/03/20 07:03:45;;;;;;;;;;;9.90;88.70;;;;;;5073946;28;19993;-88
2023/03/20 07:06:11;;;;;;;;;;;9.90;88.50;;;;;;5072766;22;19979;-88
2023/03/20 07:08:37;;;;;;;;;;;9.90;89.20;;;;;;5044196;28;20733;-89
2023/03/20 07:11:03;;;;;;;;;;;9.90;89.70;;;;;;5050199;28;19950;-88
2023/03/20 07:13:29;;;;;;;;;;;10.00;89.20;;;;;;5043229;28;19942;-88
2023/03/20 07:15:54;;;;;;;;;;;10.10;88.90;;;;;;5041348;28;20419;-89
2023/03/20 07:18:20;;;;;;;;;;;10.10;88.80;;;;;;5051213;28;19970;-88
2023/03/20 07:20:46;;;;;;;;;;;10.20;88.80;;;;;;5046878;28;19955;-89
2023/03/20 07:23:11;;;;;;;;;;;10.30;89.10;;;;;;5051368;28;20317;-88
2023/03/20 07:25:37;;;;;;;;;;;10.50;88.50;;;;;;5050536;28;19951;-88
2023/03/20 07:28:04;;;;;;;;;;;10.70;87.80;;;;;;5043176;28;20109;-88
2023/03/20 07:30:31;;;;;;;;;;;10.80;87.30;;;;;;5048957;28;20411;-88
2023/03/20 07:32:56;;;;;;;;;;;10.90;86.60;;;;;;5050436;28;20074;-88
2023/03/20 07:35:22;;;;;;;;;;;11.00;86.50;;;;;;5051648;28;19974;-89
2023/03/20 07:37:47;;;;;;;;;;;10.90;85.20;;;;;;5051203;28;20012;-88
2023/03/20 07:40:13;;;;;;;;;;;10.80;85.80;;;;;;5047747;28;20425;-88
2023/03/20 07:42:38;;;;;;;;;;;10.90;85.50;;;;;;5045298;28;20443;-88
2023/03/20 07:45:04;;;;;;;;;;;10.90;85.10;;;;;;5045116;28;19939;-88
2023/03/20 07:47:30;;;;;;;;;;;11.00;85.00;;;;;;5050362;28;20368;-88
2023/03/20 07:49:55;;;;;;;;;;;11.10;84.20;;;;;;5050606;28;19953;-89
2023/03/20 07:52:21;;;;;;;;;;;11.10;84.10;;;;;;5035393;28;19963;-88
2023/03/20 07:54:46;;;;;;;;;;;11.20;84.30;;;;;;5049484;28;19990;-89
2023/03/20 07:57:12;;;;;;;;;;;11.40;84.20;;;;;;5053614;28;20049;-88
2023/03/20 07:59:37;;;;;;;;;;;11.60;83.10;;;;;;5042105;28;19948;-89
2023/03/20 08:02:03;;;;;;;;;;;11.80;82.50;;;;;;5052187;28;20398;-88
2023/03/20 08:04:29;;;;;;;;;;;12.00;80.40;;;;;;5045925;28;20468;-88
2023/03/20 08:06:54;;;;;;;;;;;11.90;80.30;;;;;;5050753;28;19972;-89
2023/03/20 08:09:20;;;;;;;;;;;11.90;80.50;;;;;;5054568;28;19954;-89
2023/03/20 08:11:45;;;;;;;;;;;12.00;80.40;;;;;;5028153;28;19995;-88
2023/03/20 08:14:11;;;;;;;;;;;12.10;79.80;;;;;;5047583;28;20428;-88
2023/03/20 08:16:37;;;;;;;;;;;12.00;80.00;;;;;;5038195;28;20409;-88
2023/03/20 08:19:04;;;;;;;;;;;11.90;80.40;;;;;;5049389;28;20664;-88
2023/03/20 08:21:30;;;;;;;;;;;11.90;80.80;;;;;;5055435;28;19971;-88
2023/03/20 08:23:56;;;;;;;;;;;11.90;80.80;;;;;;5052958;28;19943;-89
2023/03/20 08:26:22;;;;;;;;;;;12.00;80.30;;;;;;5047340;28;20023;-89
2023/03/20 08:28:47;;;;;;;;;;;12.10;79.60;;;;;;5052381;28;19952;-89
2023/03/20 08:31:13;;;;;;;;;;;12.20;79.80;;;;;;5051740;28;19958;-89
2023/03/20 08:33:38;;;;;;;;;;;12.50;78.80;;;;;;5054036;28;19945;-90
2023/03/20 08:36:04;;;;;;;;;;;12.80;78.30;;;;;;5049297;28;19942;-89
2023/03/20 08:38:30;;;;;;;;;;;12.80;78.70;;;;;;5050480;28;19943;-89
2023/03/20 08:40:55;;;;;;;;;;;12.80;78.60;;;;;;5049745;28;20042;-88
2023/03/20 08:43:21;;;;;;;;;;;12.90;77.90;;;;;;5047988;28;19944;-88
2023/03/20 08:45:46;;;;;;;;;;;13.00;77.80;;;;;;5051147;28;19954;-89
2023/03/20 08:48:12;;;;;;;;;;;13.10;78.20;;;;;;5054739;28;19969;-88
2023/03/20 08:50:38;;;;;;;;;;;13.10;77.40;;;;;;5052197;28;19994;-88
2023/03/20 08:53:04;;;;;;;;;;;13.10;77.50;;;;;;5051968;28;19967;-88
2023/03/20 08:55:30;;;;;;;;;;;12.90;78.20;;;;;;5054131;28;19953;-88
2023/03/20 08:57:56;;;;;;;;;;;12.90;78.50;;;;;;5053904;28;19948;-88
2023/03/20 09:00:22;;;;;;;;;;;13.00;78.90;;;;;;5049280;28;19943;-88
2023/03/20 09:02:48;;;;;;;;;;;13.10;79.00;;;;;;5058408;28;20397;-88
2023/03/20 09:05:14;;;;;;;;;;;13.00;79.10;;;;;;5033566;28;19955;-89
2023/03/20 09:07:39;;;;;;;;;;;13.20;79.30;;;;;;5052027;28;19988;-90
2023/03/20 09:10:05;;;;;;;;;;;13.30;78.20;;;;;;5051544;28;19946;-89
2023/03/20 09:12:31;;;;;;;;;;;13.50;77.70;;;;;;5041116;28;20474;-89
2023/03/20 09:14:57;;;;;;;;;;;13.60;77.60;;;;;;5053687;28;20012;-89
2023/03/20 09:17:22;;;;;;;;;;;13.50;77.30;;;;;;5054812;28;20315;-90
2023/03/20 09:19:48;;;;;;;;;;;13.60;77.00;;;;;;5051891;28;20317;-89
2023/03/20 09:22:14;;;;;;;;;;;13.70;77.20;;;;;;5052645;28;19952;-88
2023/03/20 09:24:40;;;;;;;;;;;13.70;76.50;;;;;;5050337;28;20042;-88
2023/03/20 09:27:06;;;;;;;;;;;13.80;76.50;;;;;;5031492;28;20436;-88
2023/03/20 09:29:32;;;;;;;;;;;13.90;76.00;;;;;;5051628;28;19947;-88
2023/03/20 09:31:57;;;;;;;;;;;13.80;75.50;;;;;;5050732;28;20313;-88
2023/03/20 09:34:23;;;;;;;;;;;13.90;76.90;;;;;;5049241;28;19970;-88
2023/03/20 09:36:48;;;;;;;;;;;14.00;77.80;;;;;;5052093;28;20527;-89
2023/03/20 09:39:14;;;;;;;;;;;13.90;76.80;;;;;;5049913;28;19990;-89
2023/03/20 09:41:45;;;;;;;;;;;13.90;76.80;;;;;;5049562;28;20322;-89
2023/03/20 09:44:29;;;;;;;;;;;13.80;76.70;;;;;;5052118;28;19950;-89
2023/03/20 09:47:15;;;;;;;;;;;13.90;77.10;;;;;;5051570;28;19970;-90
2023/03/20 09:49:56;;;;;;;;;;;14.20;78.10;;;;;;5051318;28;20230;-89
2023/03/20 09:52:37;;;;;;;;;;;14.40;77.10;;;;;;5031166;28;19967;-89
2023/03/20 09:55:06;;;;;;;;;;;14.60;76.60;;;;;;5050950;28;20062;-89
2023/03/20 09:57:38;;;;;;;;;;;14.80;76.20;;;;;;5051204;28;19937;-89
2023/03/20 10:00:06;;;;;;;;;;;14.90;75.20;;;;;;5051399;28;20050;-90
2023/03/20 10:02:53;;;;;;;;;;;14.90;74.80;;;;;;5033636;28;20090;-89
2023/03/20 10:05:26;;;;;;;;;;;14.80;73.40;;;;;;5050700;28;19993;-88
2023/03/20 10:07:59;;;;;;;;;;;14.80;73.00;;;;;;5049364;28;19955;-89
2023/03/20 10:10:35;;;;;;;;;;;14.70;74.90;;;;;;5051814;28;20026;-89
2023/03/20 10:13:07;;;;;;;;;;;14.80;74.80;;;;;;5047109;28;20203;-90
2023/03/20 10:15:45;;;;;;;;;;;14.90;74.10;;;;;;5049791;28;20419;-90
2023/03/20 10:18:21;;;;;;;;;;;15.00;74.10;;;;;;5049531;28;19964;-90
2023/03/20 10:20:53;;;;;;;;;;;15.30;74.40;;;;;;5046529;28;19962;-90
2023/03/20 10:23:18;;;;;;;;;;;15.60;72.40;;;;;;5048355;28;20000;-90
2023/03/20 10:25:52;;;;;;;;;;;15.70;71.10;;;;;;5049446;28;19956;-90
2023/03/20 10:28:18;;;;;;;;;;;15.70;70.30;;;;;;5051244;28;19959;-90
2023/03/20 10:31:02;;;;;;;;;;;15.80;69.60;;;;;;5050629;28;20327;-90
2023/03/20 10:33:27;;;;;;;;;;;15.90;70.30;;;;;;5045934;28;19953;-90
2023/03/20 10:35:56;;;;;;;;;;;16.00;70.10;;;;;;5028479;28;19951;-91
2023/03/20 10:38:29;;;;;;;;;;;16.10;70.90;;;;;;5049337;28;20034;-91
2023/03/20 10:40:56;;;;;;;;;;;16.30;70.90;;;;;;5048368;28;19948;-90
2023/03/20 10:43:26;;;;;;;;;;;16.20;70.60;;;;;;5049061;28;19947;-90
2023/03/20 10:45:56;;;;;;;;;;;16.30;70.00;;;;;;5048927;28;19945;-89
2023/03/20 10:48:34;;;;;;;;;;;16.20;70.90;;;;;;5049432;28;19961;-89
2023/03/20 10:51:01;;;;;;;;;;;16.10;71.90;;;;;;5049843;28;19982;-89
2023/03/20 10:53:45;;;;;;;;;;;15.90;73.00;;;;;;5049082;28;20000;-89
2023/03/20 10:56:16;;;;;;;;;;;15.60;72.30;;;;;;5042726;28;19999;-89
2023/03/20 10:58:43;;;;;;;;;;;15.40;72.80;;;;;;5032373;28;20068;-91
2023/03/20 11:01:09;;;;;;;;;;;15.40;74.10;;;;;;5049736;28;19996;-90
2023/03/20 11:03:38;;;;;;;;;;;15.50;74.30;;;;;;5050175;28;20373;-89
2023/03/20 11:06:12;;;;;;;;;;;15.70;72.80;;;;;;5048286;28;19977;-91
2023/03/20 11:08:41;;;;;;;;;;;15.90;71.90;;;;;;5047426;28;19952;-91
2023/03/20 11:11:08;;;;;;;;;;;15.90;71.20;;;;;;5052713;28;19984;-91
2023/03/20 11:13:37;;;;;;;;;;;16.20;70.90;;;;;;5052801;28;19947;-90
2023/03/20 11:16:08;;;;;;;;;;;16.30;69.60;;;;;;5052670;28;20369;-90
2023/03/20 11:18:33;;;;;;;;;;;16.40;70.30;;;;;;5052804;28;19946;-91
2023/03/20 11:21:00;;;;;;;;;;;16.40;70.10;;;;;;5052833;28;19940;-90
2023/03/20 11:23:27;;;;;;;;;;;16.60;69.60;;;;;;5054908;28;19972;-91
2023/03/20 11:25:57;;;;;;;;;;;16.80;69.00;;;;;;5057266;28;19945;-91
2023/03/20 11:28:29;;;;;;;;;;;16.80;69.00;;;;;;5057093;28;19984;-90
2023/03/20 11:31:00;;;;;;;;;;;16.70;67.30;;;;;;5057087;28;19976;-89
2023/03/20 11:33:27;;;;;;;;;;;16.70;68.10;;;;;;5056783;28;19946;-89
2023/03/20 11:35:54;;;;;;;;;;;16.60;66.20;;;;;;5056623;28;20008;-89
2023/03/20 11:38:20;;;;;;;;;;;16.30;67.30;;;;;;5056664;28;19936;-90
2023/03/20 11:40:47;;;;;;;;;;;16.30;67.50;;;;;;5056676;28;19990;-90
2023/03/20 11:43:22;;;;;;;;;;;16.40;63.70;;;;;;5056664;28;19946;-90
2023/03/20 11:45:49;;;;;;;;;;;16.70;64.80;;;;;;5038728;28;19984;-90
2023/03/20 11:48:19;;;;;;;;;;;17.00;65.20;;;;;;5056693;28;20063;-90
2023/03/20 11:50:46;;;;;;;;;;;17.20;65.80;;;;;;5056485;28;19942;-91
2023/03/20 11:53:21;;;;;;;;;;;17.10;66.40;;;;;;5038487;28;19955;-90
2023/03/20 11:56:01;;;;;;;;;;;17.20;66.50;;;;;;5056397;28;19987;-91
2023/03/20 11:58:28;;;;;;;;;;;17.30;66.30;;;;;;5056330;28;19990;-91
2023/03/20 12:00:55;;;;;;;;;;;17.70;65.10;;;;;;5056475;28;19952;-91
2023/03/20 12:03:32;;;;;;;;;;;17.70;62.00;;;;;;5056287;28;19980;-91
2023/03/20 12:05:59;;;;;;;;;;;17.90;61.90;;;;;;5055764;28;19971;-91
2023/03/20 12:08:25;;;;;;;;;;;18.00;60.70;;;;;;5056102;28;19972;-91
2023/03/20 12:10:57;;;;;;;;;;;18.10;61.50;;;;;;5056131;28;20030;-91
2023/03/20 12:13:28;;;;;;;;;;;18.00;63.50;;;;;;5056074;28;19941;-90
2023/03/20 12:15:58;;;;;;;;;;;18.20;61.90;;;;;;5055645;28;20039;-89
2023/03/20 12:18:35;;;;;;;;;;;18.10;63.10;;;;;;5055974;28;20087;-90
2023/03/20 12:21:09;;;;;;;;;;;18.40;62.20;;;;;;5055913;28;19939;-89
2023/03/20 12:23:38;;;;;;;;;;;18.80;61.10;;;;;;5054330;28;19938;-89
2023/03/20 12:26:06;;;;;;;;;;;18.80;59.80;;;;;;5036507;28;19969;-90
2023/03/20 12:28:36;;;;;;;;;;;19.20;59.40;;;;;;5036860;28;19957;-90
2023/03/20 12:31:02;;;;;;;;;;;19.20;61.10;;;;;;5049105;28;19956;-90
2023/03/20 12:33:32;;;;;;;;;;;19.50;61.10;;;;;;5048653;28;19946;-90
2023/03/20 12:36:00;;;;;;;;;;;20.00;59.60;;;;;;5047637;28;19949;-91
2023/03/20 12:38:27;;;;;;;;;;;20.80;56.90;;;;;;5050479;28;20427;-90
2023/03/20 12:41:13;;;;;;;;;;;21.30;56.00;;;;;;5052484;28;19969;-90
2023/03/20 12:43:45;;;;;;;;;;;22.20;54.20;;;;;;5057579;28;19941;-91
2023/03/20 12:46:24;;;;;;;;;;;22.00;52.60;;;;;;5050841;28;20318;-90
2023/03/20 12:48:50;;;;;;;;;;;22.50;52.80;;;;;;5055214;28;19952;-90
2023/03/20 12:51:41;;;;;;;;;;;23.50;50.60;;;;;;5055345;28;19947;-91
2023/03/20 12:54:15;;;;;;;;;;;23.70;48.50;;;;;;5022794;28;20050;-90
2023/03/20 12:56:49;;;;;;;;;;;23.30;48.00;;;;;;5062244;28;19946;-90
2023/03/20 12:59:14;;;;;;;;;;;24.30;47.40;;;;;;5062705;28;20471;-91
2023/03/20 13:01:56;;;;;;;;;;;25.00;43.90;;;;;;5051395;28;19946;-90
2023/03/20 13:04:40;;;;;;;;;;;25.00;43.30;;;;;;5050572;28;19968;-91
2023/03/20 13:07:13;;;;;;;;;;;24.10;45.70;;;;;;5050398;28;20441;-90
2023/03/20 13:09:57;;;;;;;;;;;23.90;46.60;;;;;;5053653;28;19943;-91
2023/03/20 13:12:22;;;;;;;;;;;23.80;45.80;;;;;;5034976;28;20329;-91
2023/03/20 13:14:56;;;;;;;;;;;23.50;46.10;;;;;;5054079;28;19945;-91
2023/03/20 13:17:40;;;;;;;;;;;23.20;47.30;;;;;;5050995;28;19946;-91
2023/03/20 13:20:17;;;;;;;;;;;23.10;49.00;;;;;;5052873;28;20354;-90
2023/03/20 13:23:02;;;;;;;;;;;23.00;48.10;;;;;;5050030;28;19957;-90
2023/03/20 13:25:33;;;;;;;;;;;23.40;47.70;;;;;;5049919;28;19950;-90
2023/03/20 13:28:10;;;;;;;;;;;23.40;47.40;;;;;;5035669;28;19961;-90
2023/03/20 13:30:43;;;;;;;;;;;23.00;46.80;;;;;;5052657;28;19990;-91
2023/03/20 13:33:27;;;;;;;;;;;22.90;48.80;;;;;;5051394;28;19951;-90
2023/03/20 13:35:55;;;;;;;;;;;22.80;47.30;;;;;;5042106;28;19986;-91
2023/03/20 13:38:23;;;;;;;;;;;23.30;47.50;;;;;;5053488;28;19946;-91
2023/03/20 13:40:56;;;;;;;;;;;23.20;47.70;;;;;;5052277;28;20394;-91
2023/03/20 13:43:53;;;;;;;;;;;23.30;46.90;;;;;;5053820;28;20392;-91
2023/03/20 13:46:23;;;;;;;;;;;23.30;47.40;;;;;;5037784;28;19942;-91
2023/03/20 13:48:50;;;;;;;;;;;23.30;48.10;;;;;;5051563;28;19953;-90
2023/03/20 13:51:24;;;;;;;;;;;22.80;48.90;;;;;;5050443;28;19952;-91
2023/03/20 13:53:55;;;;;;;;;;;23.40;46.10;;;;;;5040893;28;19966;-91
2023/03/20 13:56:21;;;;;;;;;;;24.00;46.00;;;;;;5032937;28;19956;-91
2023/03/20 13:58:52;;;;;;;;;;;25.00;44.40;;;;;;5049209;28;19945;-91
2023/03/20 14:01:36;;;;;;;;;;;24.80;43.90;;;;;;5048716;28;19942;-91
2023/03/20 14:04:02;;;;;;;;;;;25.20;43.10;;;;;;5037138;28;20036;-91
2023/03/20 14:06:30;;;;;;;;;;;25.60;43.90;;;;;;5041777;28;20066;-91
2023/03/20 14:08:56;;;;;;;;;;;25.20;42.60;;;;;;5053522;28;19949;-91
2023/03/20 14:11:31;;;;;;;;;;;25.20;42.90;;;;;;5052104;28;19975;-91
2023/03/20 14:14:13;;;;;;;;;;;24.90;44.60;;;;;;5053732;28;19942;-91
2023/03/20 14:16:39;;;;;;;;;;;24.30;46.60;;;;;;5059413;28;20042;-91
2023/03/20 14:19:07;;;;;;;;;;;24.30;45.00;;;;;;5045810;28;20402;-91
2023/03/20 14:21:33;;;;;;;;;;;24.20;44.70;;;;;;5050343;28;19953;-90
2023/03/20 14:24:01;;;;;;;;;;;23.80;45.40;;;;;;5057996;28;19955;-91
2023/03/20 14:26:28;;;;;;;;;;;23.30;46.30;;;;;;5052093;28;20422;-90
2023/03/20 14:28:57;;;;;;;;;;;23.40;45.90;;;;;;5057595;28;19956;-90
2023/03/20 14:31:32;;;;;;;;;;;23.60;45.90;;;;;;5069140;28;19952;-90